createdAt,value
2022-09-03T00:00:56.551Z,100.00
2022-09-03T00:03:32.327Z,100.00
2022-09-03T00:06:12.289Z,100.00
2022-09-03T00:08:46.975Z,100.00
2022-09-03T00:11:25.028Z,100.00
2022-09-03T00:14:03.244Z,100.00
2022-09-03T00:16:54.372Z,100.00
2022-09-03T00:19:30.288Z,100.00
2022-09-03T00:22:02.990Z,100.00
2022-09-03T00:24:34.095Z,100.00
2022-09-03T00:27:03.484Z,100.00
2022-09-03T00:29:35.367Z,100.00
2022-09-03T00:32:14.165Z,100.00
2022-09-03T00:34:47.263Z,100.00
2022-09-03T00:37:19.044Z,100.00
2022-09-03T00:39:45.940Z,100.00
2022-09-03T00:42:31.550Z,100.00
2022-09-03T00:45:17.229Z,100.00
2022-09-03T00:48:00.282Z,100.00
2022-09-03T00:50:45.620Z,100.00
2022-09-03T00:53:18.743Z,100.00
2022-09-03T00:55:48.640Z,100.00
2022-09-03T00:58:34.268Z,100.00
2022-09-03T01:01:09.976Z,100.00
2022-09-03T01:03:58.834Z,100.00
2022-09-03T01:06:39.610Z,100.00
2022-09-03T01:09:22.525Z,100.00
2022-09-03T01:12:01.611Z,100.00
2022-09-03T01:14:33.388Z,100.00
2022-09-03T01:17:09.480Z,100.00
2022-09-03T01:19:48.091Z,100.00
2022-09-03T01:22:41.507Z,100.00
2022-09-03T01:25:17.984Z,100.00
2022-09-03T01:27:53.016Z,100.00
2022-09-03T01:30:30.283Z,100.00
2022-09-03T01:33:15.146Z,100.00
2022-09-03T01:35:50.059Z,100.00
2022-09-03T01:38:22.855Z,100.00
2022-09-03T01:40:52.511Z,100.00
2022-09-03T01:43:32.690Z,100.00
2022-09-03T01:46:14.121Z,100.00
2022-09-03T01:48:46.660Z,100.00
2022-09-03T01:51:23.850Z,100.00
2022-09-03T01:54:21.001Z,100.00
2022-09-03T01:57:19.138Z,100.00
2022-09-03T02:00:17.170Z,100.00
2022-09-03T02:02:48.224Z,100.00
2022-09-03T02:05:18.519Z,100.00
2022-09-03T02:07:47.414Z,100.00
2022-09-03T02:10:32.188Z,100.00
2022-09-03T02:13:12.692Z,100.00
2022-09-03T02:15:48.351Z,100.00
2022-09-03T02:18:24.444Z,100.00
2022-09-03T02:20:54.972Z,100.00
2022-09-03T02:23:28.589Z,100.00
2022-09-03T02:25:57.201Z,100.00
2022-09-03T02:28:31.158Z,100.00
2022-09-03T02:33:46.400Z,100.00
2022-09-03T02:36:21.279Z,100.00
2022-09-03T02:38:48.129Z,100.00
2022-09-03T02:41:19.947Z,100.00
2022-09-03T02:44:00.433Z,100.00
2022-09-03T02:46:39.077Z,100.00
2022-09-03T02:49:14.932Z,100.00
2022-09-03T02:51:46.071Z,100.00
2022-09-03T02:54:18.925Z,100.00
2022-09-03T02:57:02.033Z,100.00
2022-09-03T02:59:28.916Z,100.00
2022-09-03T03:02:01.266Z,100.00
2022-09-03T03:04:43.474Z,100.00
2022-09-03T03:07:16.418Z,100.00
2022-09-03T03:09:43.291Z,100.00
2022-09-03T03:12:13.505Z,100.00
2022-09-03T03:14:40.369Z,100.00
2022-09-03T03:17:18.273Z,100.00
2022-09-03T03:19:45.207Z,100.00
2022-09-03T03:22:12.071Z,100.00
2022-09-03T03:24:45.706Z,100.00
2022-09-03T03:27:17.372Z,100.00
2022-09-03T03:29:53.131Z,100.00
2022-09-03T03:32:20.766Z,100.00
2022-09-03T03:35:01.148Z,100.00
2022-09-03T03:37:33.811Z,100.00
2022-09-03T03:40:03.132Z,100.00
2022-09-03T03:42:36.399Z,100.00
2022-09-03T03:45:15.069Z,100.00
2022-09-03T03:47:45.112Z,100.00
2022-09-03T03:50:14.856Z,100.00
2022-09-03T03:52:49.497Z,100.00
2022-09-03T03:55:19.968Z,100.00
2022-09-03T03:57:54.456Z,100.00
2022-09-03T04:03:26.762Z,100.00
2022-09-03T04:05:59.932Z,100.00
2022-09-03T04:08:38.617Z,100.00
2022-09-03T04:11:10.119Z,100.00
2022-09-03T04:13:38.642Z,100.00
2022-09-03T04:16:16.645Z,100.00
2022-09-03T04:18:43.542Z,100.00
2022-09-03T04:21:20.295Z,100.00
2022-09-03T04:23:50.874Z,100.00
2022-09-03T04:26:27.020Z,100.00
2022-09-03T04:28:56.990Z,100.00
2022-09-03T04:31:28.078Z,100.00
2022-09-03T04:33:55.115Z,100.00
2022-09-03T04:36:23.188Z,100.00
2022-09-03T04:38:59.343Z,100.00
2022-09-03T04:41:30.032Z,100.00
2022-09-03T04:43:58.471Z,100.00
2022-09-03T04:46:34.582Z,100.00
2022-09-03T04:49:18.064Z,100.00
2022-09-03T04:51:45.082Z,100.00
2022-09-03T04:54:29.233Z,100.00
2022-09-03T04:57:02.384Z,100.00
2022-09-03T04:59:29.277Z,100.00
2022-09-03T05:02:09.542Z,100.00
2022-09-03T05:04:39.274Z,100.00
2022-09-03T05:07:08.288Z,100.00
2022-09-03T05:09:38.289Z,100.00
2022-09-03T05:12:12.434Z,100.00
2022-09-03T05:14:48.060Z,100.00
2022-09-03T05:17:18.031Z,100.00
2022-09-03T05:19:53.655Z,100.00
2022-09-03T05:22:23.399Z,100.00
2022-09-03T05:24:50.481Z,100.00
2022-09-03T05:27:35.135Z,100.00
2022-09-03T05:30:02.065Z,100.00
2022-09-03T05:32:31.138Z,100.00
2022-09-03T05:35:00.968Z,100.00
2022-09-03T05:37:37.046Z,100.00
2022-09-03T05:40:06.518Z,100.00
2022-09-03T05:42:41.042Z,100.00
2022-09-03T05:45:11.191Z,100.00
2022-09-03T05:47:41.091Z,100.00
2022-09-03T05:50:15.190Z,100.00
2022-09-03T05:52:47.416Z,100.00
2022-09-03T05:55:14.372Z,100.00
2022-09-03T05:57:46.269Z,100.00
2022-09-03T06:00:16.480Z,100.00
2022-09-03T06:02:52.930Z,100.00
2022-09-03T06:05:22.989Z,100.00
2022-09-03T06:07:52.839Z,100.00
2022-09-03T06:10:26.006Z,99.62
2022-09-03T06:12:55.388Z,96.03
2022-09-03T06:15:24.988Z,98.18
2022-09-03T06:17:54.574Z,92.09
2022-09-03T06:20:21.529Z,95.52
2022-09-03T06:22:49.113Z,94.35
2022-09-03T06:25:19.429Z,89.16
2022-09-03T06:27:47.584Z,86.78
2022-09-03T06:30:20.391Z,88.57
2022-09-03T06:32:47.858Z,88.00
2022-09-03T06:35:20.829Z,89.13
2022-09-03T06:37:47.889Z,88.00
2022-09-03T06:40:22.744Z,84.84
2022-09-03T06:43:02.127Z,85.03
2022-09-03T06:45:31.743Z,84.43
2022-09-03T06:48:04.009Z,84.65
2022-09-03T06:50:34.522Z,79.92
2022-09-03T06:53:01.866Z,77.87
2022-09-03T06:55:35.567Z,76.29
2022-09-03T06:58:11.404Z,76.95
2022-09-03T07:00:39.641Z,77.49
2022-09-03T07:03:12.151Z,76.03
2022-09-03T07:05:45.882Z,74.04
2022-09-03T07:08:15.624Z,75.97
2022-09-03T07:10:46.622Z,77.48
2022-09-03T07:13:14.438Z,72.01
2022-09-03T07:15:41.486Z,74.10
2022-09-03T07:18:08.433Z,72.61
2022-09-03T07:20:38.327Z,75.34
2022-09-03T07:23:08.301Z,72.13
2022-09-03T07:25:41.591Z,71.08
2022-09-03T07:28:08.439Z,69.88
2022-09-03T07:30:35.307Z,67.77
2022-09-03T07:33:07.436Z,67.60
2022-09-03T07:35:36.595Z,67.27
2022-09-03T07:38:04.022Z,66.12
2022-09-03T07:40:36.694Z,68.30
2022-09-03T07:43:09.506Z,68.65
2022-09-03T07:45:37.653Z,67.44
2022-09-03T07:48:09.798Z,66.70
2022-09-03T07:50:51.730Z,65.34
2022-09-03T07:53:27.421Z,65.95
2022-09-03T07:55:54.963Z,68.46
2022-09-03T07:58:34.524Z,66.26
2022-09-03T08:01:19.159Z,64.85
2022-09-03T08:03:48.987Z,66.05
2022-09-03T08:06:28.175Z,67.55
2022-09-03T08:09:05.407Z,65.14
2022-09-03T08:11:45.755Z,65.15
2022-09-03T08:14:16.146Z,64.53
2022-09-03T08:16:51.511Z,61.99
2022-09-03T08:19:21.187Z,62.64
2022-09-03T08:21:56.257Z,63.36
2022-09-03T08:24:24.892Z,62.91
2022-09-03T08:26:54.839Z,61.63
2022-09-03T08:29:23.790Z,63.69
2022-09-03T08:31:59.525Z,61.76
2022-09-03T08:34:26.711Z,61.02
2022-09-03T08:36:54.627Z,60.36
2022-09-03T08:39:27.399Z,60.06
2022-09-03T08:42:05.081Z,58.73
2022-09-03T08:44:45.870Z,56.62
2022-09-03T08:47:31.514Z,56.42
2022-09-03T08:50:10.399Z,59.88
2022-09-03T08:52:59.643Z,58.62
2022-09-03T08:55:38.097Z,60.84
2022-09-03T08:58:07.375Z,59.99
2022-09-03T09:01:02.145Z,57.90
2022-09-03T09:03:35.570Z,57.61
2022-09-03T09:06:05.222Z,56.08
2022-09-03T09:08:53.894Z,55.63
2022-09-03T09:11:33.790Z,56.16
2022-09-03T09:14:12.169Z,57.20
2022-09-03T09:16:45.200Z,56.81
2022-09-03T09:19:27.286Z,57.35
2022-09-03T09:22:04.489Z,56.57
2022-09-03T09:24:42.393Z,54.89
2022-09-03T09:27:16.078Z,55.61
2022-09-03T09:29:55.973Z,55.29
2022-09-03T09:32:25.305Z,53.87
2022-09-03T09:34:53.325Z,56.02
2022-09-03T09:37:20.680Z,52.33
2022-09-03T09:39:58.073Z,52.52
2022-09-03T09:42:25.096Z,51.13
2022-09-03T09:44:58.242Z,54.24
2022-09-03T09:47:44.709Z,53.28
2022-09-03T09:50:25.130Z,53.68
2022-09-03T09:53:14.455Z,49.73
2022-09-03T09:55:51.660Z,49.85
2022-09-03T09:58:26.694Z,50.91
2022-09-03T10:01:16.461Z,55.81
2022-09-03T10:04:00.637Z,51.36
2022-09-03T10:06:51.389Z,51.41
2022-09-03T10:09:19.740Z,49.76
2022-09-03T10:11:51.015Z,52.70
2022-09-03T10:14:35.462Z,53.66
2022-09-03T10:17:12.637Z,51.01
2022-09-03T10:20:27.461Z,49.43
2022-09-03T10:23:02.421Z,51.68
2022-09-03T10:25:36.004Z,48.92
2022-09-03T10:28:03.261Z,48.52
2022-09-03T10:30:42.456Z,46.99
2022-09-03T10:33:24.552Z,47.10
2022-09-03T10:36:06.735Z,46.84
2022-09-03T10:38:45.361Z,47.06
2022-09-03T10:41:33.199Z,47.43
2022-09-03T10:44:23.240Z,45.29
2022-09-03T10:46:59.054Z,45.04
2022-09-03T10:49:44.635Z,43.14
2022-09-03T10:52:33.226Z,40.61
2022-09-03T10:55:07.395Z,44.38
2022-09-03T10:57:37.851Z,43.71
2022-09-03T11:03:07.611Z,44.30
2022-09-03T11:05:45.677Z,42.10
2022-09-03T11:08:25.317Z,43.47
2022-09-03T11:11:05.803Z,41.84
2022-09-03T11:13:48.051Z,41.14
2022-09-03T11:16:18.438Z,43.41
2022-09-03T11:19:04.585Z,42.36
2022-09-03T11:21:33.067Z,40.96
2022-09-03T11:24:23.324Z,41.83
2022-09-03T11:27:19.287Z,42.11
2022-09-03T11:29:51.826Z,39.99
2022-09-03T11:32:26.566Z,38.95
2022-09-03T11:34:59.624Z,39.39
2022-09-03T11:37:35.027Z,43.28
2022-09-03T11:40:19.008Z,38.84
2022-09-03T11:42:50.434Z,39.13
2022-09-03T11:45:35.147Z,39.21
2022-09-03T11:48:32.019Z,38.39
2022-09-03T11:51:02.599Z,38.69
2022-09-03T11:53:41.641Z,39.03
2022-09-03T11:56:20.347Z,39.33
2022-09-03T11:59:01.776Z,37.99
2022-09-03T12:01:31.993Z,38.29
2022-09-03T12:04:05.718Z,39.63
2022-09-03T12:06:37.755Z,40.53
2022-09-03T12:09:23.104Z,40.31
2022-09-03T12:12:13.542Z,41.32
2022-09-03T12:15:01.683Z,39.99
2022-09-03T12:17:37.476Z,39.70
2022-09-03T12:20:12.829Z,37.33
2022-09-03T12:22:48.189Z,39.28
2022-09-03T12:25:23.208Z,42.39
2022-09-03T12:27:55.787Z,43.16
2022-09-03T12:30:23.659Z,44.06
2022-09-03T12:33:06.682Z,46.29
2022-09-03T12:38:54.706Z,41.04
2022-09-03T12:41:40.207Z,38.24
2022-09-03T12:44:07.244Z,38.09
2022-09-03T12:46:34.691Z,37.67
2022-09-03T12:52:15.202Z,36.34
2022-09-03T12:54:57.005Z,40.40
2022-09-03T12:57:30.112Z,40.21
2022-09-03T13:00:06.659Z,40.53
2022-09-03T13:02:46.596Z,41.13
2022-09-03T13:05:21.310Z,42.59
2022-09-03T13:11:00.412Z,45.26
2022-09-03T13:13:39.987Z,43.97
2022-09-03T13:16:20.270Z,43.63
2022-09-03T13:22:15.349Z,42.75
2022-09-03T13:25:00.936Z,41.56
2022-09-03T13:27:35.906Z,43.97
2022-09-03T13:30:25.444Z,43.95
2022-09-03T13:33:10.431Z,43.83
2022-09-03T13:35:57.559Z,46.09
2022-09-03T13:38:42.741Z,44.62
2022-09-03T13:41:51.546Z,46.93
2022-09-03T13:44:28.670Z,45.23
2022-09-03T13:47:05.844Z,45.39
2022-09-03T13:49:57.972Z,46.73
2022-09-03T13:52:45.429Z,42.76
2022-09-03T13:55:45.605Z,43.59
2022-09-03T13:58:32.711Z,48.77
2022-09-03T14:01:05.079Z,47.97
2022-09-03T14:03:53.681Z,43.95
2022-09-03T14:06:30.393Z,45.76
2022-09-03T14:09:21.928Z,43.35
2022-09-03T14:12:07.405Z,49.16
2022-09-03T14:14:47.506Z,44.69
2022-09-03T14:17:38.426Z,43.89
2022-09-03T14:20:14.573Z,44.19
2022-09-03T14:23:04.538Z,46.07
2022-09-03T14:25:47.480Z,42.43
2022-09-03T14:28:31.731Z,44.68
2022-09-03T14:31:29.037Z,45.58
2022-09-03T14:34:31.205Z,42.72
2022-09-03T14:37:33.509Z,44.68
2022-09-03T14:40:15.131Z,42.96
2022-09-03T14:42:51.937Z,41.58
2022-09-03T14:45:50.945Z,43.88
2022-09-03T14:48:26.754Z,40.90
2022-09-03T14:51:06.743Z,40.86
2022-09-03T14:53:54.165Z,42.29
2022-09-03T14:56:26.951Z,41.35
2022-09-03T14:59:08.136Z,45.09
2022-09-03T15:01:39.199Z,40.20
2022-09-03T15:04:15.688Z,40.32
2022-09-03T15:06:52.079Z,39.16
2022-09-03T15:09:28.154Z,40.73
2022-09-03T15:12:06.372Z,42.12
2022-09-03T15:14:42.148Z,42.53
2022-09-03T15:17:28.847Z,43.73
2022-09-03T15:20:15.133Z,42.02
2022-09-03T15:22:49.342Z,41.24
2022-09-03T15:25:37.564Z,43.40
2022-09-03T15:28:09.260Z,38.14
2022-09-03T15:30:53.419Z,40.46
2022-09-03T15:33:28.969Z,42.04
2022-09-03T15:36:03.106Z,39.42
2022-09-03T15:38:52.286Z,40.13
2022-09-03T15:41:30.029Z,38.98
2022-09-03T15:44:16.930Z,36.77
2022-09-03T15:46:49.375Z,36.25
2022-09-03T15:49:40.247Z,33.04
2022-09-03T15:52:07.171Z,32.40
2022-09-03T15:54:54.888Z,31.24
2022-09-03T15:57:39.367Z,31.32
2022-09-03T16:00:31.031Z,31.04
2022-09-03T16:03:24.273Z,33.04
2022-09-03T16:05:59.808Z,31.90
2022-09-03T16:08:45.288Z,30.20
2022-09-03T16:11:27.584Z,29.67
2022-09-03T16:14:07.545Z,30.06
2022-09-03T16:16:51.565Z,31.06
2022-09-03T16:19:21.240Z,30.06
2022-09-03T16:22:01.859Z,29.58
2022-09-03T16:24:40.774Z,29.50
2022-09-03T16:27:11.161Z,31.47
2022-09-03T16:30:01.418Z,29.30
2022-09-03T16:32:49.840Z,30.33
2022-09-03T16:35:45.301Z,32.02
2022-09-03T16:38:18.960Z,35.15
2022-09-03T16:41:09.085Z,37.71
2022-09-03T16:43:45.258Z,39.07
2022-09-03T16:46:34.331Z,41.76
2022-09-03T16:49:07.931Z,44.47
2022-09-03T16:51:48.284Z,45.44
2022-09-03T16:54:51.842Z,48.45
2022-09-03T16:57:27.687Z,50.42
2022-09-03T17:00:05.884Z,51.31
2022-09-03T17:02:55.129Z,53.71
2022-09-03T17:05:26.532Z,54.75
2022-09-03T17:08:14.136Z,55.50
2022-09-03T17:11:11.754Z,56.19
2022-09-03T17:14:01.178Z,57.84
2022-09-03T17:16:37.648Z,58.63
2022-09-03T17:19:13.239Z,60.49
2022-09-03T17:21:52.938Z,61.53
2022-09-03T17:24:38.076Z,62.26
2022-09-03T17:27:32.596Z,63.41
2022-09-03T17:30:13.799Z,64.91
2022-09-03T17:32:46.364Z,65.32
2022-09-03T17:35:27.559Z,66.66
2022-09-03T17:38:10.065Z,67.04
2022-09-03T17:40:39.625Z,67.87
2022-09-03T17:43:34.814Z,68.87
2022-09-03T17:46:20.305Z,69.90
2022-09-03T17:49:01.970Z,71.49
2022-09-03T17:51:48.639Z,72.66
2022-09-03T17:54:29.486Z,73.64
2022-09-03T17:57:02.972Z,74.02
2022-09-03T17:59:59.444Z,74.01
2022-09-03T18:02:46.758Z,74.54
2022-09-03T18:05:32.349Z,74.40
2022-09-03T18:08:17.681Z,74.62
2022-09-03T18:11:07.291Z,74.67
2022-09-03T18:13:55.371Z,75.52
2022-09-03T18:16:26.969Z,76.77
2022-09-03T18:19:22.343Z,78.93
2022-09-03T18:22:09.260Z,80.30
2022-09-03T18:25:01.932Z,79.94
2022-09-03T18:27:55.259Z,80.54
2022-09-03T18:30:47.258Z,80.18
2022-09-03T18:33:39.627Z,80.27
2022-09-03T18:36:28.270Z,80.31
2022-09-03T18:39:17.187Z,79.99
2022-09-03T18:42:03.846Z,80.37
2022-09-03T18:45:11.919Z,80.87
2022-09-03T18:48:22.964Z,83.42
2022-09-03T18:51:21.788Z,83.54
2022-09-03T18:54:11.394Z,84.45
2022-09-03T18:57:06.434Z,85.52
2022-09-03T19:00:11.107Z,86.42
2022-09-03T19:03:06.986Z,87.09
2022-09-03T19:05:58.525Z,88.54
2022-09-03T19:09:05.482Z,89.18
2022-09-03T19:11:55.791Z,88.13
2022-09-03T19:14:53.608Z,87.80
2022-09-03T19:17:48.130Z,90.24
2022-09-03T19:20:46.081Z,90.58
2022-09-03T19:23:31.671Z,91.52
2022-09-03T19:26:28.316Z,91.61
2022-09-03T19:29:23.412Z,92.35
2022-09-03T19:32:28.394Z,93.22
2022-09-03T19:35:35.681Z,93.67
2022-09-03T19:38:33.596Z,94.43
2022-09-03T19:41:31.472Z,95.64
2022-09-03T19:44:38.175Z,97.33
2022-09-03T19:47:41.189Z,100.00
2022-09-03T19:50:43.955Z,100.00
2022-09-03T19:53:40.394Z,100.00
2022-09-03T19:56:46.512Z,100.00
2022-09-03T19:59:38.948Z,100.00
2022-09-03T20:02:28.026Z,100.00
2022-09-03T20:05:21.947Z,100.00
2022-09-03T20:08:10.189Z,100.00
2022-09-03T20:10:56.334Z,100.00
2022-09-03T20:13:26.296Z,100.00
2022-09-03T20:16:02.761Z,100.00
2022-09-03T20:18:50.308Z,100.00
2022-09-03T20:22:04.892Z,100.00
2022-09-03T20:24:58.172Z,100.00
2022-09-03T20:27:30.983Z,100.00
2022-09-03T20:30:12.469Z,100.00
2022-09-03T20:32:53.364Z,100.00
2022-09-03T20:35:47.500Z,100.00
2022-09-03T20:41:33.292Z,100.00
2022-09-03T20:44:05.900Z,100.00
2022-09-03T20:46:54.980Z,100.00
2022-09-03T20:49:52.280Z,100.00
2022-09-03T20:52:31.387Z,100.00
2022-09-03T20:55:16.632Z,100.00
2022-09-03T20:57:52.182Z,100.00
2022-09-03T21:00:23.392Z,100.00
2022-09-03T21:03:10.892Z,100.00
2022-09-03T21:05:59.266Z,100.00
2022-09-03T21:08:41.493Z,100.00
2022-09-03T21:11:14.702Z,100.00
2022-09-03T21:13:57.261Z,100.00
2022-09-03T21:16:48.769Z,100.00
2022-09-03T21:19:36.914Z,100.00
2022-09-03T21:22:12.308Z,100.00
2022-09-03T21:25:00.830Z,100.00
2022-09-03T21:27:32.741Z,100.00
2022-09-03T21:30:09.702Z,100.00
2022-09-03T21:32:44.193Z,100.00
2022-09-03T21:35:29.855Z,100.00
2022-09-03T21:38:05.409Z,100.00
2022-09-03T21:40:35.775Z,100.00
2022-09-03T21:43:17.493Z,100.00
2022-09-03T21:45:58.051Z,100.00
2022-09-03T21:48:35.784Z,100.00
2022-09-03T21:51:11.315Z,100.00
2022-09-03T21:53:59.230Z,100.00
2022-09-03T21:56:35.120Z,100.00
2022-09-03T21:59:09.340Z,100.00
2022-09-03T22:01:39.448Z,100.00
2022-09-03T22:04:18.045Z,100.00
2022-09-03T22:07:10.374Z,100.00
2022-09-03T22:09:53.439Z,100.00
2022-09-03T22:12:23.482Z,100.00
2022-09-03T22:14:52.025Z,100.00
2022-09-03T22:17:47.197Z,100.00
2022-09-03T22:20:15.646Z,100.00
2022-09-03T22:22:50.496Z,100.00
2022-09-03T22:25:25.114Z,100.00
2022-09-03T22:28:12.115Z,100.00
2022-09-03T22:30:44.728Z,100.00
2022-09-03T22:33:33.696Z,100.00
2022-09-03T22:36:03.939Z,100.00
2022-09-03T22:38:53.141Z,100.00
2022-09-03T22:41:34.759Z,100.00
2022-09-03T22:44:27.549Z,100.00
2022-09-03T22:47:00.134Z,100.00
2022-09-03T22:49:46.377Z,100.00
2022-09-03T22:52:31.337Z,100.00
2022-09-03T22:55:15.817Z,100.00
2022-09-03T22:58:03.007Z,100.00
2022-09-03T23:00:34.013Z,100.00
2022-09-03T23:03:08.042Z,100.00
2022-09-03T23:05:35.207Z,100.00
2022-09-03T23:08:10.419Z,100.00
2022-09-03T23:10:56.618Z,100.00
2022-09-03T23:14:05.024Z,100.00
2022-09-03T23:16:47.181Z,100.00
2022-09-03T23:19:35.920Z,100.00
2022-09-03T23:22:09.616Z,100.00
2022-09-03T23:24:43.704Z,100.00
2022-09-03T23:27:16.778Z,100.00
2022-09-03T23:29:43.707Z,100.00
2022-09-03T23:32:16.350Z,100.00
2022-09-03T23:34:43.198Z,100.00
2022-09-03T23:40:18.258Z,100.00
2022-09-03T23:43:00.012Z,100.00
2022-09-03T23:45:29.609Z,100.00
2022-09-03T23:48:08.470Z,100.00
2022-09-03T23:50:36.268Z,100.00
2022-09-03T23:53:10.137Z,100.00
2022-09-03T23:56:11.542Z,100.00
2022-09-03T23:58:55.422Z,100.00
